Weather History for Seminole, TX

Change the Weather History Date:

Friday, October 26, 2012

  Actual Average (KHOB) Record (KHOB)
Temperature  
Mean Temperature 45 °F -  
Max Temperature 55 °F 70 °F 87 °F (1950)
Min Temperature 35 °F 46 °F 34 °F (1957)
Degree Days  
Heating Degree Days 20    
Moisture  
Dew Point 26 °F    
Average Humidity 50    
Maximum Humidity 79    
Minimum Humidity 27    
Precipitation  
Precipitation 0.00 in - - ()
Sea Level Pressure  
Sea Level Pressure 30.32 in    
Wind  
Wind Speed 9 mph (NE)    
Max Wind Speed 16 mph    
Max Gust Speed 22 mph    
Visibility 10 miles    
Events      
Averages and records for this station are not official NWS values.
T = Trace of Precipitation, MM = Missing Value Source: NWS Daily Summary

Daily Weather History Graph

Daily Weather History Graph

Search for Another Location

Airport:

Trip Planner

Search our weather history database for the weather conditions in past years. The results will help you decide how hot, cold, wet, or windy it might be!

Date:

Astronomy

Oct. 26, 2012 Rise Set
Actual Time 8:03 AM CDT 7:04 PM CDT
Civil Twilight 7:38 AM CDT 7:30 PM CDT
Nautical Twilight 7:09 AM CDT 7:59 PM CDT
Astronomical Twilight 6:40 AM CDT 8:27 PM CDT
Moon 5:15 PM CDT 5:10 AM CDT
Length of Visible Light 11h 51m
Length of Day
11h 01m
Waxing Gibbous, 91% of the Moon is Illuminated
Oct 26
Waxing Gibbous
Oct 29
Full
Nov 6
Last Quarter
Nov 13
New
Nov 20
First Quarter

Hourly Weather History & Observations

Time (CDT) Temp. Windchill Dew Point Humidity Pressure Visibility Wind Dir Wind Speed Gust Speed Precip Events Conditions
12:15 AM 46.0 °F 40.6 °F 31.8 °F 58% 30.21 in 10.0 mi ENE 11.5 mph - N/A   Clear
12:35 AM 45.1 °F 39.9 °F 31.8 °F 60% 30.22 in 10.0 mi ENE 10.4 mph - N/A   Clear
1:15 AM 44.1 °F 39.0 °F 31.5 °F 61% 30.22 in 10.0 mi ENE 9.2 mph - N/A   Clear
1:35 AM 43.5 °F 37.9 °F 31.5 °F 63% 30.23 in 10.0 mi NE 10.4 mph - N/A   Clear
1:55 AM 43.2 °F 37.9 °F 31.1 °F 62% 30.23 in 10.0 mi NE 9.2 mph - N/A   Clear
2:15 AM 42.6 °F 36.8 °F 31.1 °F 64% 30.23 in 10.0 mi NE 10.4 mph - N/A   Clear
2:35 AM 42.3 °F 36.3 °F 31.1 °F 65% 30.23 in 10.0 mi NE 10.4 mph - N/A   Clear
2:55 AM 41.7 °F 36.7 °F 31.1 °F 66% 30.24 in 10.0 mi NE 8.1 mph - N/A   Clear
3:15 AM 41.2 °F 36.0 °F 31.1 °F 67% 30.24 in 10.0 mi NE 8.1 mph - N/A   Clear
3:55 AM 40.1 °F 35.3 °F 31.1 °F 70% 30.25 in 10.0 mi NE 6.9 mph - N/A   Clear
4:15 AM 39.9 °F 35.8 °F 31.1 °F 71% 30.26 in 10.0 mi NE 5.8 mph - N/A   Clear
4:35 AM 39.4 °F 34.5 °F 31.1 °F 72% 30.26 in 10.0 mi NE 6.9 mph - N/A   Clear
4:55 AM 39.4 °F 35.2 °F 31.1 °F 72% 30.27 in 10.0 mi NNE 5.8 mph - N/A   Clear
5:15 AM 39.0 °F 32.8 °F 31.1 °F 73% 30.27 in 10.0 mi NE 9.2 mph - N/A   Clear
5:35 AM 38.5 °F 35.0 °F 30.9 °F 74% 30.27 in 10.0 mi NE 4.6 mph - N/A   Clear
6:15 AM 37.4 °F 32.1 °F 30.9 °F 77% 30.28 in 10.0 mi NNE 6.9 mph - N/A   Clear
6:35 AM 37.4 °F 32.8 °F 30.9 °F 77% 30.29 in 10.0 mi NNE 5.8 mph - N/A   Clear
6:55 AM 37.2 °F 33.6 °F 30.9 °F 78% 30.30 in 10.0 mi North 4.6 mph - N/A   Clear
7:15 AM 36.9 °F 31.4 °F 30.7 °F 79% 30.30 in 10.0 mi North 6.9 mph - N/A   Clear
7:55 AM 36.1 °F 31.4 °F 30.2 °F 79% 30.32 in 10.0 mi NNE 5.8 mph - N/A   Clear
8:35 AM 35.8 °F 29.4 °F 29.8 °F 79% 30.33 in 10.0 mi North 8.1 mph - N/A   Clear
8:55 AM 36.7 °F 30.5 °F 30.0 °F 77% 30.34 in 10.0 mi North 8.1 mph - N/A   Clear
9:15 AM 37.9 °F 30.5 °F 30.2 °F 74% 30.35 in 10.0 mi NNE 11.5 mph 17.3 mph N/A   Clear
9:35 AM 39.0 °F 32.8 °F 30.2 °F 71% 30.37 in 10.0 mi NNE 9.2 mph 18.4 mph N/A   Clear
10:15 AM 41.5 °F 33.8 °F 30.2 °F 64% 30.39 in 10.0 mi NE 15.0 mph 19.6 mph N/A   Clear
10:35 AM 42.6 °F 34.9 °F 30.0 °F 61% 30.39 in 10.0 mi NE 16.1 mph 20.7 mph N/A   Clear
10:55 AM 43.9 °F 36.8 °F 30.0 °F 58% 30.39 in 10.0 mi NE 15.0 mph 18.4 mph N/A   Clear
11:15 AM 44.6 °F 38.8 °F 29.5 °F 55% 30.39 in 10.0 mi NNE 11.5 mph 17.3 mph N/A   Clear
11:35 AM 45.5 °F 39.9 °F 29.5 °F 54% 30.39 in 10.0 mi NE 11.5 mph 21.9 mph N/A   Clear
11:55 AM 46.6 °F - 29.3 °F 51% 30.38 in 10.0 mi NNE 9.2 mph 18.4 mph N/A   Clear
12:15 PM 48.4 °F - 28.9 °F 47% 30.38 in 10.0 mi NNE 9.2 mph - N/A   Clear
12:35 PM 49.1 °F - 28.6 °F 45% 30.38 in 10.0 mi NE 9.2 mph 17.3 mph N/A   Clear
12:55 PM 50.0 °F - 28.2 °F 43% 30.38 in 10.0 mi NNE 9.2 mph 17.3 mph N/A   Clear
1:15 PM 50.9 °F - 27.7 °F 41% 30.37 in 10.0 mi NE 13.8 mph 17.3 mph N/A   Clear
1:35 PM 51.6 °F - 26.8 °F 38% 30.36 in 10.0 mi NNE 9.2 mph 17.3 mph N/A   Clear
1:55 PM 52.3 °F - 26.2 °F 36% 30.34 in 10.0 mi North 10.4 mph - N/A   Clear
2:15 PM 52.9 °F - 25.7 °F 35% 30.34 in 10.0 mi NNE 9.2 mph 18.4 mph N/A   Clear
2:35 PM 53.6 °F - 25.3 °F 34% 30.33 in 10.0 mi NNE 11.5 mph 16.1 mph N/A   Clear
2:55 PM 54.3 °F - 25.2 °F 32% 30.32 in 10.0 mi NE 12.7 mph 18.4 mph N/A   Clear
3:15 PM 54.7 °F - 24.8 °F 32% 30.32 in 10.0 mi NNE 10.4 mph 19.6 mph N/A   Clear
3:35 PM 54.9 °F - 24.6 °F 31% 30.31 in 10.0 mi NE 10.4 mph - N/A   Clear
3:55 PM 55.2 °F - 24.4 °F 30% 30.31 in 10.0 mi ENE 11.5 mph - N/A   Clear
4:15 PM 55.4 °F - 23.9 °F 30% 30.31 in 10.0 mi NE 13.8 mph 20.7 mph N/A   Clear
4:35 PM 55.4 °F - 23.4 °F 29% 30.30 in 10.0 mi NNE 9.2 mph 17.3 mph N/A   Clear
4:55 PM 55.4 °F - 22.6 °F 28% 30.30 in 10.0 mi NNE 12.7 mph 20.7 mph N/A   Clear
5:15 PM 55.4 °F - 21.9 °F 27% 30.30 in 10.0 mi NE 12.7 mph 19.6 mph N/A   Clear
5:35 PM 54.9 °F - 21.0 °F 27% 30.30 in 10.0 mi ENE 12.7 mph 16.1 mph N/A   Clear
5:55 PM 54.5 °F - 20.8 °F 27% 30.30 in 10.0 mi NE 12.7 mph 19.6 mph N/A   Clear
6:15 PM 53.8 °F - 20.5 °F 27% 30.30 in 10.0 mi ENE 13.8 mph 18.4 mph N/A   Clear
6:35 PM 52.9 °F - 20.1 °F 28% 30.30 in 10.0 mi NE 15.0 mph 18.4 mph N/A   Clear
6:55 PM 52.0 °F - 19.4 °F 28% 30.31 in 10.0 mi ENE 11.5 mph - N/A   Clear
7:15 PM 50.5 °F - 19.4 °F 29% 30.32 in 10.0 mi NE 9.2 mph - N/A   Clear
7:35 PM 49.3 °F - 19.4 °F 31% 30.32 in 10.0 mi ENE 8.1 mph - N/A   Clear
7:55 PM 48.0 °F - 19.4 °F 32% 30.33 in 10.0 mi ENE 6.9 mph - N/A   Clear
8:15 PM 46.9 °F - 19.4 °F 34% 30.34 in 10.0 mi Calm Calm - N/A   Clear
8:35 PM 45.1 °F - 19.4 °F 36% 30.34 in 10.0 mi Calm Calm - N/A   Clear
8:55 PM 43.7 °F - 19.2 °F 38% 30.35 in 10.0 mi Calm Calm - N/A   Clear
9:15 PM 43.0 °F - 19.2 °F 39% 30.35 in 10.0 mi Calm Calm - N/A   Clear
9:35 PM 42.1 °F - 19.0 °F 40% 30.36 in 10.0 mi Calm Calm - N/A   Clear
9:55 PM 42.1 °F - 18.0 °F 38% 30.37 in 10.0 mi Calm Calm - N/A   Clear
10:15 PM 41.5 °F - 17.6 °F 38% 30.37 in 10.0 mi Calm Calm - N/A   Clear
10:35 PM 40.3 °F 37.1 °F 17.8 °F 40% 30.38 in 10.0 mi ENE 4.6 mph - N/A   Clear
10:55 PM 39.0 °F 35.7 °F 18.0 °F 43% 30.38 in 10.0 mi ENE 4.6 mph - N/A   Clear
11:15 PM 37.4 °F 33.8 °F 18.0 °F 45% 30.38 in 10.0 mi ENE 4.6 mph - N/A   Clear
11:35 PM 36.7 °F 32.9 °F 18.0 °F 47% 30.38 in 10.0 mi ENE 4.6 mph - N/A   Clear
11:55 PM 36.7 °F 34.1 °F 17.6 °F 46% 30.38 in 10.0 mi ENE 3.5 mph - N/A   Clear